Eufaula, Oklahoma
Current Conditions -  °F | °C
As of 8:35 AM on Wednesday 22 Oct 2014 (Local Time) from KGZL Reporting Station
Few Clouds Few Clouds  
Wind Chill: 57°   Ceiling: Unl
Heat Index: 57°   Visibility: 10mi
Dew Point: 55°   Wind: 10mph
Humidity: 94%   Direction: 100°E
Pressure: 30.2"   Gusts: NA
Location:  35.29°N, 95.58°W
Report Text: KGZL 221335Z AUTO 10009KT 10SM FEW060 14/13 A3020 RMK AO2
Loading
Personal Weather Stations






























Interactive Weather Map
Tropical Storm Tracking
New forecast layout! Learn more

10-Day Weather Forecast

Advertisements
Track Severe Weather on mobile